createdAt,value
2023-02-09T00:00:07.428Z,100.00
2023-02-09T00:02:33.921Z,100.00
2023-02-09T00:05:00.346Z,100.00
2023-02-09T00:07:26.802Z,100.00
2023-02-09T00:09:53.184Z,100.00
2023-02-09T00:12:38.368Z,100.00
2023-02-09T00:15:06.398Z,100.00
2023-02-09T00:17:35.751Z,100.00
2023-02-09T00:20:04.983Z,100.00
2023-02-09T00:22:31.742Z,100.00
2023-02-09T00:24:58.233Z,100.00
2023-02-09T00:27:24.645Z,100.00
2023-02-09T00:29:51.272Z,99.34
2023-02-09T00:32:39.519Z,97.86
2023-02-09T00:35:07.822Z,98.98
2023-02-09T00:37:35.172Z,98.04
2023-02-09T00:40:01.592Z,98.31
2023-02-09T00:42:28.011Z,99.34
2023-02-09T00:44:54.431Z,99.16
2023-02-09T00:47:20.831Z,99.59
2023-02-09T00:49:47.218Z,99.50
2023-02-09T00:52:13.615Z,99.31
2023-02-09T00:54:40.030Z,98.98
2023-02-09T00:57:06.445Z,98.85
2023-02-09T00:59:34.934Z,98.45
2023-02-09T01:02:02.414Z,98.72
2023-02-09T01:04:28.941Z,98.08
2023-02-09T01:06:55.506Z,98.44
2023-02-09T01:09:22.064Z,99.04
2023-02-09T01:11:48.497Z,98.41
2023-02-09T01:14:15.048Z,98.25
2023-02-09T01:16:41.541Z,98.85
2023-02-09T01:19:08.018Z,100.00
2023-02-09T01:21:34.443Z,99.82
2023-02-09T01:24:00.894Z,99.57
2023-02-09T01:26:27.946Z,100.00
2023-02-09T01:28:54.929Z,99.10
2023-02-09T01:31:27.945Z,98.46
2023-02-09T01:33:56.599Z,98.53
2023-02-09T01:36:23.483Z,98.55
2023-02-09T01:38:50.632Z,98.34
2023-02-09T01:41:18.011Z,98.02
2023-02-09T01:44:01.158Z,98.17
2023-02-09T01:46:30.408Z,99.05
2023-02-09T01:49:03.840Z,99.17
2023-02-09T01:51:34.850Z,99.83
2023-02-09T01:54:06.425Z,99.23
2023-02-09T01:56:33.308Z,99.33
2023-02-09T01:58:59.878Z,99.32
2023-02-09T02:01:26.740Z,100.00
2023-02-09T02:03:54.062Z,98.75
2023-02-09T02:06:20.814Z,99.14
2023-02-09T02:08:55.369Z,99.76
2023-02-09T02:11:23.991Z,100.00
2023-02-09T02:13:50.646Z,100.00
2023-02-09T02:16:32.546Z,100.00
2023-02-09T02:19:17.128Z,100.00
2023-02-09T02:22:09.230Z,100.00
2023-02-09T02:25:20.198Z,99.85
2023-02-09T02:27:55.563Z,99.96
2023-02-09T02:30:43.453Z,99.75
2023-02-09T02:33:28.274Z,100.00
2023-02-09T02:36:08.192Z,99.95
2023-02-09T02:38:43.474Z,99.56
2023-02-09T02:41:19.634Z,99.74
2023-02-09T02:44:05.454Z,98.86
2023-02-09T02:46:54.022Z,99.87
2023-02-09T02:49:44.890Z,99.30
2023-02-09T02:52:11.932Z,99.79
2023-02-09T02:54:47.729Z,99.88
2023-02-09T02:57:16.945Z,100.00
2023-02-09T02:59:53.486Z,99.80
2023-02-09T03:02:23.480Z,99.61
2023-02-09T03:04:55.046Z,100.00
2023-02-09T03:07:21.500Z,100.00
2023-02-09T03:09:52.293Z,100.00
2023-02-09T03:12:34.301Z,99.96
2023-02-09T03:15:48.374Z,100.00
2023-02-09T03:18:47.834Z,100.00
2023-02-09T03:21:28.884Z,100.00
2023-02-09T03:24:20.401Z,99.52
2023-02-09T03:26:56.027Z,99.48
2023-02-09T03:29:25.113Z,99.11
2023-02-09T03:31:52.139Z,100.00
2023-02-09T03:34:18.842Z,100.00
2023-02-09T03:36:51.781Z,100.00
2023-02-09T03:39:18.294Z,100.00
2023-02-09T03:41:44.713Z,100.00
2023-02-09T03:44:29.154Z,100.00
2023-02-09T03:47:03.220Z,100.00
2023-02-09T03:49:33.597Z,100.00
2023-02-09T03:52:01.257Z,100.00
2023-02-09T03:54:29.577Z,99.22
2023-02-09T03:56:57.039Z,100.00
2023-02-09T03:59:25.206Z,100.00
2023-02-09T04:01:53.680Z,100.00
2023-02-09T04:04:20.796Z,99.86
2023-02-09T04:06:47.587Z,100.00
2023-02-09T04:09:14.439Z,100.00
2023-02-09T04:11:40.850Z,100.00
2023-02-09T04:14:09.054Z,100.00
2023-02-09T04:16:36.767Z,99.47
2023-02-09T04:19:04.687Z,99.79
2023-02-09T04:21:31.929Z,100.00
2023-02-09T04:23:58.393Z,98.92
2023-02-09T04:26:24.848Z,99.72
2023-02-09T04:28:51.317Z,100.00
2023-02-09T04:31:18.563Z,100.00
2023-02-09T04:33:45.061Z,99.34
2023-02-09T04:36:12.194Z,100.00
2023-02-09T04:38:38.741Z,100.00
2023-02-09T04:41:05.570Z,99.32
2023-02-09T04:43:33.256Z,100.00
2023-02-09T04:46:00.632Z,100.00
2023-02-09T04:48:29.146Z,100.00
2023-02-09T04:50:55.924Z,100.00
2023-02-09T04:53:24.198Z,100.00
2023-02-09T04:55:51.790Z,100.00
2023-02-09T04:58:38.458Z,100.00
2023-02-09T05:01:05.405Z,100.00
2023-02-09T05:03:31.927Z,100.00
2023-02-09T05:06:03.330Z,100.00
2023-02-09T05:08:30.531Z,100.00
2023-02-09T05:10:57.534Z,99.88
2023-02-09T05:13:25.508Z,100.00
2023-02-09T05:15:53.791Z,100.00
2023-02-09T05:18:20.422Z,100.00
2023-02-09T05:20:48.309Z,100.00
2023-02-09T05:23:15.108Z,100.00
2023-02-09T05:25:41.947Z,100.00
2023-02-09T05:28:08.541Z,100.00
2023-02-09T05:30:35.136Z,100.00
2023-02-09T05:33:03.202Z,100.00
2023-02-09T05:35:29.698Z,100.00
2023-02-09T05:37:56.137Z,100.00
2023-02-09T05:40:22.655Z,100.00
2023-02-09T05:42:49.086Z,100.00
2023-02-09T05:45:15.554Z,100.00
2023-02-09T05:47:42.001Z,100.00
2023-02-09T05:50:08.619Z,100.00
2023-02-09T05:52:35.108Z,100.00
2023-02-09T05:55:01.597Z,100.00
2023-02-09T05:57:28.023Z,99.95
2023-02-09T05:59:54.481Z,100.00
2023-02-09T06:02:21.067Z,100.00
2023-02-09T06:04:49.583Z,100.00
2023-02-09T06:07:16.090Z,100.00
2023-02-09T06:09:48.703Z,100.00
2023-02-09T06:12:15.091Z,100.00
2023-02-09T06:14:41.619Z,100.00
2023-02-09T06:17:07.982Z,99.76
2023-02-09T06:19:34.359Z,100.00
2023-02-09T06:22:00.942Z,100.00
2023-02-09T06:24:27.557Z,100.00
2023-02-09T06:26:54.019Z,100.00
2023-02-09T06:29:20.447Z,100.00
2023-02-09T06:31:46.980Z,99.46
2023-02-09T06:34:13.555Z,99.97
2023-02-09T06:36:39.997Z,100.00
2023-02-09T06:39:08.283Z,100.00
2023-02-09T06:41:34.817Z,99.36
2023-02-09T06:44:01.223Z,100.00
2023-02-09T06:46:28.607Z,100.00
2023-02-09T06:48:55.354Z,100.00
2023-02-09T06:51:21.980Z,100.00
2023-02-09T06:53:48.590Z,100.00
2023-02-09T06:56:15.290Z,100.00
2023-02-09T06:58:41.964Z,100.00
2023-02-09T07:01:10.998Z,100.00
2023-02-09T07:03:37.838Z,100.00
2023-02-09T07:06:12.826Z,100.00
2023-02-09T07:08:40.728Z,100.00
2023-02-09T07:11:11.193Z,100.00
2023-02-09T07:13:37.985Z,100.00
2023-02-09T07:16:06.695Z,100.00
2023-02-09T07:18:34.281Z,100.00
2023-02-09T07:21:03.632Z,100.00
2023-02-09T07:23:30.701Z,100.00
2023-02-09T07:26:01.087Z,100.00
2023-02-09T07:28:27.558Z,100.00
2023-02-09T07:30:54.114Z,100.00
2023-02-09T07:33:22.113Z,100.00
2023-02-09T07:35:48.866Z,100.00
2023-02-09T07:38:15.685Z,100.00
2023-02-09T07:40:46.407Z,100.00
2023-02-09T07:43:18.032Z,100.00
2023-02-09T07:45:44.671Z,100.00
2023-02-09T07:48:11.690Z,100.00
2023-02-09T07:50:38.394Z,100.00
2023-02-09T07:53:04.824Z,100.00
2023-02-09T07:55:31.261Z,100.00
2023-02-09T07:57:57.632Z,100.00
2023-02-09T08:00:25.501Z,100.00
2023-02-09T08:02:52.499Z,100.00
2023-02-09T08:05:31.634Z,100.00
2023-02-09T08:07:58.591Z,100.00
2023-02-09T08:10:26.139Z,100.00
2023-02-09T08:13:01.982Z,100.00
2023-02-09T08:15:31.619Z,100.00
2023-02-09T08:18:02.294Z,100.00
2023-02-09T08:20:31.764Z,100.00
2023-02-09T08:23:04.866Z,100.00
2023-02-09T08:25:31.931Z,100.00
2023-02-09T08:27:59.425Z,100.00
2023-02-09T08:30:25.926Z,100.00
2023-02-09T08:32:52.314Z,100.00
2023-02-09T08:35:18.772Z,100.00
2023-02-09T08:37:45.158Z,100.00
2023-02-09T08:40:12.443Z,100.00
2023-02-09T08:42:38.838Z,100.00
2023-02-09T08:45:06.147Z,100.00
2023-02-09T08:47:32.572Z,100.00
2023-02-09T08:49:59.334Z,100.00
2023-02-09T08:52:26.184Z,100.00
2023-02-09T08:54:52.579Z,100.00
2023-02-09T08:57:19.082Z,100.00
2023-02-09T08:59:45.518Z,100.00
2023-02-09T09:02:11.922Z,100.00
2023-02-09T09:04:38.300Z,100.00
2023-02-09T09:07:04.677Z,100.00
2023-02-09T09:09:31.048Z,99.92
2023-02-09T09:11:57.437Z,99.89
2023-02-09T09:14:26.457Z,99.39
2023-02-09T09:16:53.367Z,99.25
2023-02-09T09:19:19.998Z,98.41
2023-02-09T09:21:46.392Z,98.85
2023-02-09T09:24:12.789Z,98.52
2023-02-09T09:26:39.261Z,99.00
2023-02-09T09:29:05.695Z,99.56
2023-02-09T09:31:33.488Z,98.30
2023-02-09T09:34:00.131Z,97.52
2023-02-09T09:36:26.523Z,98.27
2023-02-09T09:38:52.930Z,98.39
2023-02-09T09:41:28.296Z,96.55
2023-02-09T09:43:55.254Z,94.09
2023-02-09T09:46:32.826Z,94.55
2023-02-09T09:48:59.878Z,94.18
2023-02-09T09:52:04.782Z,92.25
2023-02-09T09:54:34.248Z,91.03
2023-02-09T09:57:01.962Z,90.74
2023-02-09T09:59:34.773Z,89.02
2023-02-09T10:02:18.987Z,86.08
2023-02-09T10:04:45.598Z,86.60
2023-02-09T10:07:19.608Z,85.84
2023-02-09T10:09:53.759Z,84.50
2023-02-09T10:12:37.748Z,84.65
2023-02-09T10:15:36.600Z,84.24
2023-02-09T10:18:10.436Z,81.81
2023-02-09T10:20:50.934Z,80.45
2023-02-09T10:23:19.467Z,82.31
2023-02-09T10:25:54.915Z,80.84
2023-02-09T10:28:31.589Z,79.29
2023-02-09T10:31:02.289Z,75.85
2023-02-09T10:33:37.010Z,72.18
2023-02-09T10:36:08.628Z,71.72
2023-02-09T10:38:39.972Z,71.65
2023-02-09T10:41:10.239Z,70.25
2023-02-09T10:43:36.807Z,68.53
2023-02-09T10:46:11.931Z,68.32
2023-02-09T10:48:44.342Z,65.49
2023-02-09T10:51:29.214Z,68.00
2023-02-09T10:53:55.647Z,68.90
2023-02-09T10:56:25.164Z,63.59
2023-02-09T10:59:00.351Z,64.26
2023-02-09T11:01:31.070Z,64.20
2023-02-09T11:04:02.089Z,63.39
2023-02-09T11:06:41.023Z,62.32
2023-02-09T11:09:14.330Z,62.14
2023-02-09T11:11:43.077Z,60.79
2023-02-09T11:14:15.641Z,61.44
2023-02-09T11:17:06.433Z,60.69
2023-02-09T11:19:46.135Z,62.68
2023-02-09T11:22:16.276Z,62.22
2023-02-09T11:25:27.537Z,61.55
2023-02-09T11:27:56.942Z,60.06
2023-02-09T11:30:54.171Z,60.15
2023-02-09T11:33:23.452Z,61.24
2023-02-09T11:36:21.377Z,59.91
2023-02-09T11:39:08.010Z,58.54
2023-02-09T11:42:03.215Z,58.88
2023-02-09T11:44:41.462Z,58.55
2023-02-09T11:47:15.393Z,59.32
2023-02-09T11:49:50.887Z,58.34
2023-02-09T11:52:30.554Z,60.22
2023-02-09T11:55:02.568Z,60.79
2023-02-09T11:57:50.548Z,59.56
2023-02-09T12:00:24.356Z,58.34
2023-02-09T12:02:53.767Z,58.10
2023-02-09T12:05:21.776Z,58.48
2023-02-09T12:08:19.059Z,56.53
2023-02-09T12:11:19.567Z,56.53
2023-02-09T12:14:03.624Z,55.54
2023-02-09T12:16:42.673Z,55.86
2023-02-09T12:19:26.342Z,55.55
2023-02-09T12:21:52.808Z,55.92
2023-02-09T12:24:40.180Z,56.66
2023-02-09T12:27:25.297Z,56.26
2023-02-09T12:29:51.822Z,56.48
2023-02-09T12:32:42.274Z,54.72
2023-02-09T12:35:28.071Z,55.67
2023-02-09T12:38:51.608Z,56.39
2023-02-09T12:41:19.978Z,54.08
2023-02-09T12:43:46.810Z,55.91
2023-02-09T12:46:18.023Z,54.97
2023-02-09T12:48:51.471Z,53.73
2023-02-09T12:51:39.771Z,52.85
2023-02-09T12:54:33.926Z,54.15
2023-02-09T12:57:15.654Z,53.79
2023-02-09T13:00:04.911Z,54.82
2023-02-09T13:02:49.792Z,54.69
2023-02-09T13:05:22.292Z,53.48
2023-02-09T13:08:03.828Z,53.77
2023-02-09T13:10:55.511Z,53.41
2023-02-09T13:13:35.971Z,51.82
2023-02-09T13:16:11.646Z,52.52
2023-02-09T13:18:54.178Z,53.91
2023-02-09T13:21:29.729Z,54.67
2023-02-09T13:24:52.054Z,54.47
2023-02-09T13:27:23.565Z,53.17
2023-02-09T13:29:55.347Z,52.42
2023-02-09T13:32:29.227Z,52.44
2023-02-09T13:35:22.870Z,52.80
2023-02-09T13:37:54.223Z,52.54
2023-02-09T13:40:32.977Z,53.79
2023-02-09T13:43:11.526Z,53.22
2023-02-09T13:45:53.383Z,53.28
2023-02-09T13:48:32.639Z,52.82
2023-02-09T13:51:03.250Z,52.64
2023-02-09T13:53:31.919Z,54.09
2023-02-09T13:56:00.512Z,54.81
2023-02-09T13:58:35.273Z,53.37
2023-02-09T14:01:09.093Z,54.22
2023-02-09T14:03:58.895Z,54.16
2023-02-09T14:06:33.379Z,53.09
2023-02-09T14:09:03.109Z,54.03
2023-02-09T14:11:42.276Z,54.78
2023-02-09T14:14:17.896Z,54.74
2023-02-09T14:16:53.574Z,54.18
2023-02-09T14:19:31.975Z,53.15
2023-02-09T14:21:58.576Z,53.19
2023-02-09T14:24:27.491Z,53.42
2023-02-09T14:26:53.951Z,54.93
2023-02-09T14:29:29.503Z,52.56
2023-02-09T14:32:32.011Z,54.27
2023-02-09T14:35:19.840Z,53.53
2023-02-09T14:37:47.541Z,54.52
2023-02-09T14:40:21.498Z,53.28
2023-02-09T14:43:21.993Z,54.77
2023-02-09T14:45:58.678Z,56.13
2023-02-09T14:48:28.923Z,53.88
2023-02-09T14:50:57.419Z,54.60
2023-02-09T14:53:28.173Z,55.55
2023-02-09T14:55:55.863Z,54.32
2023-02-09T14:58:27.081Z,53.89
2023-02-09T15:00:56.720Z,56.58
2023-02-09T15:03:23.589Z,55.69
2023-02-09T15:05:54.441Z,54.31
2023-02-09T15:08:24.064Z,53.55
2023-02-09T15:10:57.453Z,54.91
2023-02-09T15:13:24.369Z,54.52
2023-02-09T15:15:50.797Z,54.50
2023-02-09T15:18:26.032Z,53.77
2023-02-09T15:20:52.585Z,55.06
2023-02-09T15:23:20.077Z,53.77
2023-02-09T15:25:47.952Z,53.24
2023-02-09T15:28:24.596Z,54.66
2023-02-09T15:30:51.158Z,54.23
2023-02-09T15:33:17.602Z,54.20
2023-02-09T15:35:44.414Z,54.89
2023-02-09T15:38:14.865Z,55.52
2023-02-09T15:41:06.115Z,54.68
2023-02-09T15:43:51.560Z,55.48
2023-02-09T15:46:39.302Z,56.51
2023-02-09T15:49:05.807Z,56.05
2023-02-09T15:51:36.944Z,55.55
2023-02-09T15:54:07.785Z,55.56
2023-02-09T15:56:36.588Z,56.22
2023-02-09T15:59:05.394Z,55.94
2023-02-09T16:01:34.411Z,55.79
2023-02-09T16:04:13.392Z,57.12
2023-02-09T16:06:44.097Z,58.40
2023-02-09T16:09:17.697Z,58.29
2023-02-09T16:11:44.305Z,59.60
2023-02-09T16:14:17.255Z,61.04
2023-02-09T16:16:45.696Z,63.18
2023-02-09T16:19:13.237Z,64.29
2023-02-09T16:21:42.550Z,65.65
2023-02-09T16:24:21.300Z,65.89
2023-02-09T16:26:48.050Z,67.00
2023-02-09T16:29:15.347Z,67.20
2023-02-09T16:31:41.776Z,66.16
2023-02-09T16:34:09.385Z,67.99
2023-02-09T16:36:35.956Z,70.18
2023-02-09T16:39:03.533Z,69.90
2023-02-09T16:41:49.681Z,71.17
2023-02-09T16:44:26.060Z,70.26
2023-02-09T16:46:55.430Z,69.79
2023-02-09T16:49:34.630Z,72.49
2023-02-09T16:52:04.804Z,72.85
2023-02-09T16:54:37.385Z,73.59
2023-02-09T16:57:04.386Z,73.80
2023-02-09T16:59:30.784Z,75.41
2023-02-09T17:01:59.794Z,75.98
2023-02-09T17:04:26.338Z,76.17
2023-02-09T17:06:53.002Z,76.06
2023-02-09T17:09:19.437Z,77.33
2023-02-09T17:11:47.974Z,77.08
2023-02-09T17:14:14.399Z,76.52
2023-02-09T17:16:49.422Z,77.21
2023-02-09T17:19:18.148Z,79.14
2023-02-09T17:21:44.627Z,78.94
2023-02-09T17:24:16.223Z,79.48
2023-02-09T17:26:43.890Z,80.93
2023-02-09T17:29:11.082Z,80.97
2023-02-09T17:31:52.022Z,80.94
2023-02-09T17:34:26.898Z,81.11
2023-02-09T17:36:53.571Z,81.20
2023-02-09T17:39:20.096Z,80.48
2023-02-09T17:41:48.537Z,79.57
2023-02-09T17:44:45.996Z,80.81
2023-02-09T17:47:07.124Z,80.08
2023-02-09T17:49:34.906Z,81.84
2023-02-09T17:52:01.327Z,81.78
2023-02-09T17:54:27.982Z,81.18
2023-02-09T17:56:54.505Z,81.61
2023-02-09T17:59:21.287Z,83.16
2023-02-09T18:01:54.986Z,83.59
2023-02-09T18:04:26.666Z,84.00
2023-02-09T18:06:53.215Z,83.31
2023-02-09T18:09:20.022Z,82.98
2023-02-09T18:11:46.464Z,82.93
2023-02-09T18:14:17.325Z,83.15
2023-02-09T18:16:47.046Z,82.15
2023-02-09T18:19:28.830Z,82.67
2023-02-09T18:22:03.754Z,82.20
2023-02-09T18:24:34.287Z,83.54
2023-02-09T18:27:05.132Z,83.56
2023-02-09T18:29:33.598Z,84.12
2023-02-09T18:32:02.170Z,83.10
2023-02-09T18:34:29.116Z,84.01
2023-02-09T18:36:55.599Z,83.94
2023-02-09T18:39:22.045Z,83.51
2023-02-09T18:41:54.022Z,84.29
2023-02-09T18:44:24.313Z,83.85
2023-02-09T18:46:50.766Z,84.43
2023-02-09T18:49:18.154Z,84.99
2023-02-09T18:51:44.625Z,85.05
2023-02-09T18:54:11.291Z,84.46
2023-02-09T18:56:39.752Z,84.80
2023-02-09T18:59:06.259Z,84.94
2023-02-09T19:01:36.619Z,85.26
2023-02-09T19:04:03.093Z,85.05
2023-02-09T19:06:29.529Z,84.91
2023-02-09T19:08:55.961Z,85.67
2023-02-09T19:11:23.358Z,85.35
2023-02-09T19:14:08.460Z,86.31
2023-02-09T19:16:40.915Z,85.77
2023-02-09T19:19:13.273Z,86.74
2023-02-09T19:21:39.665Z,86.93
2023-02-09T19:24:06.312Z,86.02
2023-02-09T19:26:32.769Z,85.54
2023-02-09T19:28:59.155Z,85.38
2023-02-09T19:31:29.666Z,85.59
2023-02-09T19:33:57.157Z,86.88
2023-02-09T19:36:24.430Z,87.50
2023-02-09T19:38:50.911Z,87.51
2023-02-09T19:41:17.391Z,87.24
2023-02-09T19:43:43.947Z,87.47
2023-02-09T19:46:10.558Z,87.36
2023-02-09T19:48:41.088Z,87.67
2023-02-09T19:51:08.349Z,88.05
2023-02-09T19:53:35.056Z,87.71
2023-02-09T19:56:01.598Z,87.65
2023-02-09T19:58:28.107Z,87.62
2023-02-09T20:00:55.972Z,88.09
2023-02-09T20:03:24.752Z,89.23
2023-02-09T20:05:51.467Z,88.57
2023-02-09T20:08:20.072Z,89.35
2023-02-09T20:10:47.304Z,88.38
2023-02-09T20:13:15.351Z,87.94
2023-02-09T20:15:44.478Z,88.72
2023-02-09T20:18:16.029Z,89.84
2023-02-09T20:20:44.275Z,89.90
2023-02-09T20:23:10.918Z,90.67
2023-02-09T20:25:40.778Z,90.48
2023-02-09T20:28:13.521Z,91.33
2023-02-09T20:30:42.420Z,91.08
2023-02-09T20:33:10.184Z,89.99
2023-02-09T20:35:41.060Z,91.10
2023-02-09T20:38:09.052Z,92.28
2023-02-09T20:40:35.832Z,92.92
2023-02-09T20:43:21.428Z,92.13
2023-02-09T20:46:06.483Z,92.14
2023-02-09T20:48:33.117Z,92.41
2023-02-09T20:50:59.646Z,91.98
2023-02-09T20:53:26.265Z,92.11
2023-02-09T20:55:53.824Z,92.21
2023-02-09T20:58:21.357Z,91.95
2023-02-09T21:00:48.317Z,90.76
2023-02-09T21:03:16.458Z,91.00
2023-02-09T21:05:42.929Z,91.73
2023-02-09T21:08:10.417Z,91.88
2023-02-09T21:10:38.619Z,93.27
2023-02-09T21:13:06.778Z,93.31
2023-02-09T21:15:33.871Z,92.59
2023-02-09T21:18:00.295Z,92.32
2023-02-09T21:20:27.066Z,91.33
2023-02-09T21:22:53.534Z,92.43
2023-02-09T21:25:20.044Z,93.12
2023-02-09T21:27:46.617Z,92.60
2023-02-09T21:30:13.637Z,93.11
2023-02-09T21:32:40.087Z,92.90
2023-02-09T21:35:10.051Z,92.30
2023-02-09T21:37:38.555Z,92.97
2023-02-09T21:40:06.672Z,93.40
2023-02-09T21:42:33.374Z,93.26
2023-02-09T21:44:59.891Z,93.10
2023-02-09T21:47:28.482Z,94.13
2023-02-09T21:49:57.214Z,93.98
2023-02-09T21:52:24.148Z,93.66
2023-02-09T21:54:50.974Z,94.18
2023-02-09T21:57:17.856Z,93.28
2023-02-09T21:59:44.250Z,93.72
2023-02-09T22:02:16.347Z,93.29
2023-02-09T22:04:44.981Z,93.89
2023-02-09T22:07:11.922Z,93.61
2023-02-09T22:09:38.605Z,94.01
2023-02-09T22:12:05.767Z,94.76
2023-02-09T22:14:33.081Z,94.94
2023-02-09T22:16:59.711Z,95.61
2023-02-09T22:19:26.381Z,95.43
2023-02-09T22:21:52.831Z,95.53
2023-02-09T22:24:19.357Z,95.69
2023-02-09T22:26:46.922Z,96.07
2023-02-09T22:29:15.193Z,95.74
2023-02-09T22:31:42.984Z,95.73
2023-02-09T22:34:10.511Z,95.36
2023-02-09T22:36:37.471Z,95.34
2023-02-09T22:39:05.693Z,96.39
2023-02-09T22:41:32.752Z,93.38
2023-02-09T22:44:12.403Z,93.75
2023-02-09T22:46:40.928Z,94.18
2023-02-09T22:49:17.473Z,93.97
2023-02-09T22:51:45.138Z,95.22
2023-02-09T22:54:17.400Z,95.35
2023-02-09T22:56:44.003Z,95.47
2023-02-09T22:59:11.791Z,95.81
2023-02-09T23:01:38.571Z,96.20
2023-02-09T23:04:05.106Z,95.24
2023-02-09T23:06:31.633Z,95.03
2023-02-09T23:09:00.491Z,95.46
2023-02-09T23:11:28.775Z,95.16
2023-02-09T23:14:09.197Z,95.28
2023-02-09T23:16:37.755Z,94.84
2023-02-09T23:19:07.115Z,95.52
2023-02-09T23:21:39.874Z,95.30
2023-02-09T23:24:07.264Z,95.92
2023-02-09T23:26:33.709Z,94.86
2023-02-09T23:29:04.058Z,95.19
2023-02-09T23:31:30.677Z,95.49
2023-02-09T23:33:57.340Z,95.63
2023-02-09T23:36:27.063Z,94.78
2023-02-09T23:38:56.172Z,94.54
2023-02-09T23:41:23.463Z,94.25
2023-02-09T23:43:50.807Z,94.71
2023-02-09T23:46:21.553Z,95.14
2023-02-09T23:48:48.811Z,95.89
2023-02-09T23:51:19.253Z,95.43
2023-02-09T23:53:47.189Z,95.18
2023-02-09T23:56:15.668Z,94.81
2023-02-09T23:58:44.812Z,94.95
